Time,TemperatureF,DewpointF,PressureIn,WindDirection,WindDirectionDegrees,WindSpeedMPH,WindSpeedGustMPH,Humidity,HourlyPrecipIn,Conditions,Clouds,dailyrainin,SolarRadiationWatts/m^2,SoftwareType,DateUTC
2013-04-17 00:00:00,72.9,72.0,30.06,SE,143,0.0,0.0,97,0.00,,,0.89,0.0,meteohub,2013-04-17 04:00:00,
2013-04-17 00:01:00,72.9,72.0,30.06,SE,143,0.0,0.0,97,0.00,,,0.89,0.0,meteohub,2013-04-17 04:01:00,
2013-04-17 00:05:00,72.9,72.0,30.06,SE,143,0.0,0.0,97,0.00,,,0.00,0.0,meteohub,2013-04-17 04:05:00,
2013-04-17 00:10:00,72.9,72.0,30.06,SE,143,0.0,0.0,97,0.00,,,0.00,0.0,meteohub,2013-04-17 04:10:00,
2013-04-17 00:15:00,72.7,71.8,30.05,SE,143,0.0,0.0,97,0.00,,,0.00,0.0,meteohub,2013-04-17 04:15:00,
2013-04-17 00:20:00,72.5,71.6,30.05,SE,144,0.0,1.0,97,0.00,,,0.00,0.0,meteohub,2013-04-17 04:20:00,
2013-04-17 00:25:00,72.5,71.6,30.05,SE,144,0.0,1.0,97,0.00,,,0.00,0.0,meteohub,2013-04-17 04:25:00,
2013-04-17 00:30:00,72.5,71.6,30.04,SE,144,0.0,1.0,97,0.00,,,0.00,0.0,meteohub,2013-04-17 04:30:00,
2013-04-17 00:35:00,72.5,71.6,30.04,SE,144,0.0,0.0,97,0.00,,,0.00,0.0,meteohub,2013-04-17 04:35:00,
2013-04-17 00:40:00,72.7,71.8,30.04,SE,145,0.0,0.0,97,0.00,,,0.00,0.0,meteohub,2013-04-17 04:40:00,
2013-04-17 00:45:00,72.5,71.6,30.04,SE,144,0.0,0.0,97,0.00,,,0.00,0.0,meteohub,2013-04-17 04:45:00,
2013-04-17 00:50:00,72.5,71.6,30.04,SE,143,0.0,0.0,97,0.00,,,0.00,0.0,meteohub,2013-04-17 04:50:00,
2013-04-17 00:55:00,72.5,71.6,30.04,SE,144,0.0,0.0,97,0.00,,,0.00,0.0,meteohub,2013-04-17 04:55:00,
2013-04-17 01:00:00,72.5,71.6,30.03,SE,144,0.0,0.0,97,0.00,,,0.00,0.0,meteohub,2013-04-17 05:00:00,
2013-04-17 01:05:00,72.5,71.6,30.03,SE,144,0.0,0.0,97,0.00,,,0.00,0.0,meteohub,2013-04-17 05:05:00,
2013-04-17 01:10:00,72.5,71.6,30.03,SE,144,0.0,0.0,97,0.00,,,0.00,0.0,meteohub,2013-04-17 05:10:00,
2013-04-17 01:15:00,72.5,71.6,30.03,SE,144,0.0,0.0,97,0.00,,,0.00,0.0,meteohub,2013-04-17 05:15:00,
2013-04-17 01:20:00,72.3,71.4,30.03,SE,144,0.0,0.0,97,0.00,,,0.00,0.0,meteohub,2013-04-17 05:20:00,
2013-04-17 01:25:00,72.3,71.4,30.03,SE,144,0.0,0.0,97,0.00,,,0.00,0.0,meteohub,2013-04-17 05:25:00,
2013-04-17 01:30:00,72.3,71.4,30.02,SE,145,0.0,0.0,97,0.00,,,0.00,0.0,meteohub,2013-04-17 05:30:00,
2013-04-17 01:35:00,72.3,71.4,30.02,SE,144,0.0,0.0,97,0.00,,,0.00,0.0,meteohub,2013-04-17 05:35:00,
2013-04-17 01:40:00,72.3,71.4,30.02,SE,144,0.0,0.0,97,0.00,,,0.00,0.0,meteohub,2013-04-17 05:40:00,
2013-04-17 01:45:00,72.1,71.2,30.02,SE,144,0.0,0.0,97,0.00,,,0.00,0.0,meteohub,2013-04-17 05:45:00,
2013-04-17 01:50:00,72.3,71.8,30.02,SE,144,0.0,0.0,98,0.00,,,0.00,0.0,meteohub,2013-04-17 05:50:00,
2013-04-17 01:55:00,72.3,71.8,30.02,SE,144,0.0,0.0,98,0.00,,,0.00,0.0,meteohub,2013-04-17 05:55:00,
2013-04-17 02:00:00,72.1,71.6,30.01,SE,144,0.0,0.0,98,0.00,,,0.00,0.0,meteohub,2013-04-17 06:00:00,
2013-04-17 02:05:00,72.3,71.8,30.01,SE,144,0.0,0.0,98,0.00,,,0.00,0.0,meteohub,2013-04-17 06:05:00,
2013-04-17 02:10:00,72.1,71.6,30.01,SE,144,0.0,0.0,98,0.00,,,0.00,0.0,meteohub,2013-04-17 06:10:00,
2013-04-17 02:15:00,72.1,71.6,30.01,SE,144,0.0,0.0,98,0.00,,,0.00,0.0,meteohub,2013-04-17 06:15:00,
2013-04-17 02:20:00,72.0,71.4,30.01,SE,143,0.0,0.0,98,0.00,,,0.00,0.0,meteohub,2013-04-17 06:20:00,
2013-04-17 02:26:00,72.1,71.6,30.01,SE,144,0.0,0.0,98,0.00,,,0.00,0.0,meteohub,2013-04-17 06:26:00,
2013-04-17 02:31:00,72.0,71.4,30.00,SE,143,0.0,0.0,98,0.00,,,0.00,0.0,meteohub,2013-04-17 06:31:00,
2013-04-17 02:36:00,72.0,71.4,30.00,SE,144,0.0,0.0,98,0.00,,,0.00,0.0,meteohub,2013-04-17 06:36:00,
2013-04-17 02:41:00,72.0,71.4,30.00,SE,144,0.0,0.0,98,0.00,,,0.00,0.0,meteohub,2013-04-17 06:41:00,
2013-04-17 02:46:00,72.0,71.4,29.99,SE,144,0.0,0.0,98,0.00,,,0.00,0.0,meteohub,2013-04-17 06:46:00,
2013-04-17 02:52:00,71.8,71.4,29.99,SE,144,0.0,0.0,99,0.00,,,0.00,0.0,meteohub,2013-04-17 06:52:00,
2013-04-17 02:57:00,71.8,71.4,29.99,SE,144,0.0,0.0,99,0.00,,,0.00,0.0,meteohub,2013-04-17 06:57:00,
2013-04-17 03:02:00,71.8,71.4,29.99,SE,144,0.0,0.0,99,0.00,,,0.00,0.0,meteohub,2013-04-17 07:02:00,
2013-04-17 03:07:00,71.8,71.4,29.99,SE,145,0.0,0.0,99,0.00,,,0.00,0.0,meteohub,2013-04-17 07:07:00,
2013-04-17 03:12:00,71.6,71.2,29.99,SE,144,0.0,0.0,99,0.00,,,0.00,0.0,meteohub,2013-04-17 07:12:00,
2013-04-17 03:17:00,71.6,71.2,29.99,SE,145,0.0,0.0,99,0.00,,,0.00,0.0,meteohub,2013-04-17 07:17:00,
2013-04-17 03:22:00,71.4,71.1,29.99,SE,144,0.0,0.0,99,0.00,,,0.00,0.0,meteohub,2013-04-17 07:22:00,
2013-04-17 03:27:00,71.4,71.1,29.99,SE,143,0.0,0.0,99,0.00,,,0.00,0.0,meteohub,2013-04-17 07:27:00,
2013-04-17 03:32:00,71.4,71.1,29.99,SE,144,0.0,0.0,99,0.00,,,0.00,0.0,meteohub,2013-04-17 07:32:00,
2013-04-17 03:37:00,71.4,71.1,29.99,SE,144,0.0,0.0,99,0.00,,,0.00,0.0,meteohub,2013-04-17 07:37:00,
2013-04-17 03:42:00,71.2,70.9,29.99,SE,144,0.0,0.0,99,0.00,,,0.00,0.0,meteohub,2013-04-17 07:42:00,
2013-04-17 03:47:00,71.2,70.9,29.98,SE,144,0.0,0.0,99,0.00,,,0.00,0.0,meteohub,2013-04-17 07:47:00,
2013-04-17 03:52:00,71.2,70.9,29.98,SE,143,0.0,0.0,99,0.00,,,0.00,0.0,meteohub,2013-04-17 07:52:00,
2013-04-17 03:57:00,71.2,70.9,29.98,SE,143,0.0,0.0,99,0.00,,,0.00,0.0,meteohub,2013-04-17 07:57:00,
2013-04-17 04:02:00,71.1,70.7,29.98,SE,144,0.0,0.0,99,0.00,,,0.00,0.0,meteohub,2013-04-17 08:02:00,
2013-04-17 04:07:00,71.1,70.7,29.98,SE,144,0.0,0.0,99,0.00,,,0.00,0.0,meteohub,2013-04-17 08:07:00,
2013-04-17 04:12:00,71.1,70.7,29.98,SE,144,0.0,0.0,99,0.00,,,0.00,0.0,meteohub,2013-04-17 08:12:00,
2013-04-17 04:17:00,70.9,70.9,29.98,SE,144,0.0,0.0,100,0.00,,,0.00,0.0,meteohub,2013-04-17 08:17:00,
2013-04-17 04:22:00,71.1,71.1,29.98,SE,143,0.0,0.0,100,0.00,,,0.00,0.0,meteohub,2013-04-17 08:22:00,
2013-04-17 04:27:00,70.9,70.9,29.98,SE,144,0.0,0.0,100,0.00,,,0.00,0.0,meteohub,2013-04-17 08:27:00,
2013-04-17 04:32:00,70.9,70.9,29.98,SE,144,0.0,0.0,100,0.00,,,0.00,0.0,meteohub,2013-04-17 08:32:00,
2013-04-17 04:37:00,70.9,70.9,29.98,SE,144,0.0,0.0,100,0.00,,,0.00,0.0,meteohub,2013-04-17 08:37:00,
2013-04-17 04:43:00,70.9,70.9,29.98,SE,144,0.0,0.0,100,0.00,,,0.00,0.0,meteohub,2013-04-17 08:43:00,
2013-04-17 04:47:00,70.9,70.9,29.98,SE,144,0.0,0.0,100,0.00,,,0.00,0.0,meteohub,2013-04-17 08:47:00,
2013-04-17 04:53:00,70.9,70.9,29.98,SE,144,0.0,0.0,100,0.00,,,0.00,0.0,meteohub,2013-04-17 08:53:00,
2013-04-17 04:58:00,70.9,70.9,29.98,SE,145,0.0,0.0,100,0.00,,,0.00,0.0,meteohub,2013-04-17 08:58:00,
2013-04-17 05:03:00,70.9,70.9,29.98,SE,143,0.0,0.0,100,0.00,,,0.00,0.0,meteohub,2013-04-17 09:03:00,
2013-04-17 05:08:00,70.9,70.9,29.98,SE,144,0.0,0.0,100,0.00,,,0.00,0.0,meteohub,2013-04-17 09:08:00,
2013-04-17 05:13:00,70.9,70.9,29.99,SE,143,0.0,0.0,100,0.00,,,0.00,0.0,meteohub,2013-04-17 09:13:00,
2013-04-17 05:18:00,70.9,70.9,29.99,SE,144,0.0,0.0,100,0.00,,,0.00,0.0,meteohub,2013-04-17 09:18:00,
2013-04-17 05:23:00,70.9,70.9,29.99,SE,144,0.0,0.0,100,0.00,,,0.00,0.0,meteohub,2013-04-17 09:23:00,
2013-04-17 05:28:00,70.9,70.9,29.99,SE,145,0.0,0.0,100,0.00,,,0.00,0.0,meteohub,2013-04-17 09:28:00,
2013-04-17 05:33:00,70.9,70.9,29.99,SE,144,0.0,0.0,100,0.00,,,0.00,0.0,meteohub,2013-04-17 09:33:00,
2013-04-17 05:38:00,70.9,70.9,29.99,SE,143,0.0,0.0,100,0.00,,,0.00,0.0,meteohub,2013-04-17 09:38:00,
2013-04-17 05:43:00,70.9,70.9,29.99,SE,144,0.0,0.0,100,0.00,,,0.00,0.0,meteohub,2013-04-17 09:43:00,
2013-04-17 05:48:00,70.5,70.5,29.99,SE,144,0.0,0.0,100,0.00,,,0.00,0.0,meteohub,2013-04-17 09:48:00,
2013-04-17 05:53:00,70.5,70.5,29.99,SE,144,0.0,0.0,100,0.00,,,0.00,0.0,meteohub,2013-04-17 09:53:00,
2013-04-17 05:58:00,70.5,70.5,30.00,SE,144,0.0,0.0,100,0.00,,,0.00,0.0,meteohub,2013-04-17 09:58:00,
2013-04-17 06:03:00,70.5,70.5,30.00,SE,144,0.0,0.0,100,0.00,,,0.00,0.0,meteohub,2013-04-17 10:03:00,
2013-04-17 06:08:00,70.5,70.5,30.00,SE,145,0.0,0.0,100,0.00,,,0.00,0.0,meteohub,2013-04-17 10:08:00,
2013-04-17 06:13:00,70.5,70.5,30.00,SE,143,0.0,0.0,100,0.00,,,0.00,5.0,meteohub,2013-04-17 10:13:00,
2013-04-17 06:18:00,70.9,70.9,30.00,SE,145,0.0,0.0,100,0.00,,,0.00,9.0,meteohub,2013-04-17 10:18:00,
2013-04-17 06:23:00,70.5,70.5,30.00,SE,144,0.0,0.0,100,0.00,,,0.00,16.0,meteohub,2013-04-17 10:23:00,
2013-04-17 06:28:00,70.5,70.5,30.01,SE,144,0.0,0.0,100,0.00,,,0.00,46.0,meteohub,2013-04-17 10:28:00,
2013-04-17 06:33:00,70.9,70.9,30.01,SE,144,0.0,0.0,100,0.00,,,0.00,65.0,meteohub,2013-04-17 10:33:00,
2013-04-17 06:38:00,70.9,70.9,30.01,SE,144,0.0,0.0,100,0.00,,,0.00,76.0,meteohub,2013-04-17 10:38:00,
2013-04-17 06:43:00,71.1,71.1,30.01,SE,144,0.0,0.0,100,0.00,,,0.00,84.0,meteohub,2013-04-17 10:43:00,
2013-04-17 06:48:00,71.2,71.2,30.01,SE,143,0.0,0.0,100,0.00,,,0.00,125.0,meteohub,2013-04-17 10:48:00,
2013-04-17 06:54:00,71.4,71.4,30.01,SE,144,0.0,0.0,100,0.01,,,0.01,141.0,meteohub,2013-04-17 10:54:00,
2013-04-17 06:59:00,71.6,71.6,30.02,SE,144,0.0,0.0,100,0.01,,,0.01,158.0,meteohub,2013-04-17 10:59:00,
2013-04-17 07:04:00,72.0,72.0,30.02,SE,144,0.0,0.0,100,0.01,,,0.01,178.0,meteohub,2013-04-17 11:04:00,
2013-04-17 07:09:00,72.1,72.1,30.02,SE,144,0.0,0.0,100,0.01,,,0.01,197.0,meteohub,2013-04-17 11:09:00,
2013-04-17 07:14:00,72.7,72.7,30.02,SE,144,0.0,0.0,100,0.01,,,0.01,218.0,meteohub,2013-04-17 11:14:00,
2013-04-17 07:19:00,72.9,72.9,30.02,SE,144,0.0,0.0,100,0.01,,,0.01,234.0,meteohub,2013-04-17 11:19:00,
2013-04-17 07:24:00,73.2,72.9,30.02,SE,144,0.0,0.0,99,0.01,,,0.01,257.0,meteohub,2013-04-17 11:24:00,
2013-04-17 07:29:00,73.8,73.4,30.03,SE,144,0.0,0.0,99,0.01,,,0.01,280.0,meteohub,2013-04-17 11:29:00,
2013-04-17 07:34:00,74.1,73.6,30.03,SE,144,0.0,0.0,98,0.01,,,0.01,299.0,meteohub,2013-04-17 11:34:00,
2013-04-17 07:39:00,74.7,74.1,30.03,SE,144,0.0,0.0,98,0.01,,,0.01,318.0,meteohub,2013-04-17 11:39:00,
2013-04-17 07:44:00,75.4,74.1,30.03,SE,144,0.0,0.0,96,0.01,,,0.01,336.0,meteohub,2013-04-17 11:44:00,
2013-04-17 07:49:00,75.7,74.1,30.03,SE,144,0.0,0.0,95,0.01,,,0.01,357.0,meteohub,2013-04-17 11:49:00,
2013-04-17 07:54:00,76.3,74.1,30.03,SE,143,0.0,0.0,93,0.00,,,0.01,373.0,meteohub,2013-04-17 11:54:00,
2013-04-17 07:59:00,76.5,73.6,30.04,SE,144,0.0,0.0,91,0.00,,,0.01,396.0,meteohub,2013-04-17 11:59:00,
2013-04-17 08:04:00,77.0,74.1,30.04,SE,143,0.0,5.0,91,0.00,,,0.01,413.0,meteohub,2013-04-17 12:04:00,
2013-04-17 08:09:00,77.7,74.3,30.04,ESE,104,0.0,5.0,89,0.00,,,0.01,435.0,meteohub,2013-04-17 12:09:00,
2013-04-17 08:14:00,78.3,74.5,30.04,ESE,102,0.0,5.0,88,0.00,,,0.01,456.0,meteohub,2013-04-17 12:14:00,
2013-04-17 08:19:00,78.6,74.5,30.04,East,90,3.0,3.0,87,0.00,,,0.01,477.0,meteohub,2013-04-17 12:19:00,
2013-04-17 08:25:00,78.8,74.3,30.04,East,97,0.0,6.0,86,0.00,,,0.01,498.0,meteohub,2013-04-17 12:25:00,
2013-04-17 08:30:00,79.3,74.5,30.04,SE,128,8.0,8.0,85,0.00,,,0.01,512.0,meteohub,2013-04-17 12:30:00,
2013-04-17 08:35:00,79.9,74.7,30.04,ENE,62,0.0,8.0,84,0.00,,,0.01,535.0,meteohub,2013-04-17 12:35:00,
2013-04-17 08:40:00,80.1,74.1,30.04,ESE,116,0.0,8.0,82,0.00,,,0.01,554.0,meteohub,2013-04-17 12:40:00,
2013-04-17 08:45:00,80.8,74.5,30.04,SE,128,0.0,8.0,81,0.00,,,0.01,575.0,meteohub,2013-04-17 12:45:00,
2013-04-17 08:50:00,81.0,74.1,30.04,ESE,113,0.0,7.0,80,0.00,,,0.01,595.0,meteohub,2013-04-17 12:50:00,
2013-04-17 08:55:00,81.1,74.3,30.04,ESE,112,0.0,7.0,80,0.00,,,0.01,619.0,meteohub,2013-04-17 12:55:00,
2013-04-17 09:00:00,81.1,73.9,30.04,ESE,117,0.0,8.0,79,0.00,,,0.01,676.0,meteohub,2013-04-17 13:00:00,
2013-04-17 09:05:00,81.1,73.6,30.04,SE,130,5.0,11.0,78,0.00,,,0.01,676.0,meteohub,2013-04-17 13:05:00,
2013-04-17 09:10:00,81.1,73.9,30.04,ESE,117,0.0,12.0,79,0.00,,,0.01,267.0,meteohub,2013-04-17 13:10:00,
2013-04-17 09:15:00,81.3,74.1,30.04,ENE,78,0.0,12.0,79,0.00,,,0.01,767.0,meteohub,2013-04-17 13:15:00,
2013-04-17 09:20:00,81.9,74.3,30.04,ESE,119,3.0,10.0,78,0.00,,,0.01,774.0,meteohub,2013-04-17 13:20:00,
2013-04-17 09:25:00,82.0,74.5,30.04,ESE,119,6.0,11.0,78,0.00,,,0.01,839.0,meteohub,2013-04-17 13:25:00,
2013-04-17 09:31:00,81.9,73.9,30.04,SSE,152,5.0,11.0,77,0.00,,,0.01,174.0,meteohub,2013-04-17 13:31:00,
2013-04-17 09:36:00,81.3,73.8,30.04,ESE,112,0.0,8.0,78,0.00,,,0.01,955.0,meteohub,2013-04-17 13:36:00,
2013-04-17 09:41:00,81.7,73.8,30.04,ESE,119,0.0,8.0,77,0.00,,,0.01,259.0,meteohub,2013-04-17 13:41:00,
2013-04-17 09:46:00,82.4,74.5,30.04,South,176,0.0,8.0,77,0.00,,,0.01,1010.0,meteohub,2013-04-17 13:46:00,
2013-04-17 09:51:00,82.8,73.6,30.04,East,90,0.0,7.0,74,0.00,,,0.01,259.0,meteohub,2013-04-17 13:51:00,
2013-04-17 09:56:00,82.6,73.4,30.04,East,93,0.0,7.0,74,0.00,,,0.01,285.0,meteohub,2013-04-17 13:56:00,
2013-04-17 10:01:00,82.8,73.6,30.04,ESE,104,0.0,7.0,74,0.00,,,0.01,294.0,meteohub,2013-04-17 14:01:00,
2013-04-17 10:06:00,82.6,73.4,30.04,ESE,102,0.0,7.0,74,0.00,,,0.01,331.0,meteohub,2013-04-17 14:06:00,
2013-04-17 10:11:00,82.9,73.4,30.04,East,82,3.0,7.0,73,0.00,,,0.01,246.0,meteohub,2013-04-17 14:11:00,
2013-04-17 10:17:00,82.9,73.4,30.03,East,79,2.0,7.0,73,0.00,,,0.01,190.0,meteohub,2013-04-17 14:17:00,
2013-04-17 10:22:00,82.8,73.6,30.03,East,80,0.0,7.0,74,0.00,,,0.01,211.0,meteohub,2013-04-17 14:22:00,
2013-04-17 10:27:00,82.8,73.9,30.03,East,82,7.0,10.0,75,0.00,,,0.01,311.0,meteohub,2013-04-17 14:27:00,
2013-04-17 10:32:00,82.6,73.4,30.03,East,93,0.0,10.0,74,0.00,,,0.01,160.0,meteohub,2013-04-17 14:32:00,
2013-04-17 10:37:00,82.2,73.0,30.03,ESE,120,0.0,12.0,74,0.00,,,0.01,116.0,meteohub,2013-04-17 14:37:00,
2013-04-17 10:42:00,82.2,73.6,30.03,SE,133,0.0,12.0,75,0.00,,,0.01,114.0,meteohub,2013-04-17 14:42:00,
2013-04-17 10:47:00,81.9,73.6,30.02,SE,133,0.0,8.0,76,0.00,,,0.01,116.0,meteohub,2013-04-17 14:47:00,
2013-04-17 10:52:00,81.9,73.6,30.02,SE,133,0.0,6.0,76,0.00,,,0.01,88.0,meteohub,2013-04-17 14:52:00,
2013-04-17 10:57:00,81.7,73.8,30.02,ENE,64,0.0,6.0,77,0.00,,,0.01,93.0,meteohub,2013-04-17 14:57:00,
2013-04-17 11:02:00,81.7,73.8,30.02,ESE,121,5.0,6.0,77,0.00,,,0.01,86.0,meteohub,2013-04-17 15:02:00,
2013-04-17 11:07:00,81.3,73.4,30.02,ESE,103,0.0,10.0,77,0.00,,,0.01,106.0,meteohub,2013-04-17 15:07:00,
2013-04-17 11:12:00,81.3,73.4,30.02,South,178,0.0,10.0,77,0.00,,,0.01,197.0,meteohub,2013-04-17 15:12:00,
2013-04-17 11:17:00,81.9,73.9,30.01,SSE,148,4.0,10.0,77,0.00,,,0.01,238.0,meteohub,2013-04-17 15:17:00,
2013-04-17 11:22:00,81.3,73.4,30.01,South,181,0.0,11.0,77,0.00,,,0.01,183.0,meteohub,2013-04-17 15:22:00,
2013-04-17 11:27:00,80.8,73.6,30.01,South,181,0.0,11.0,79,0.00,,,0.01,146.0,meteohub,2013-04-17 15:27:00,
2013-04-17 11:32:00,80.4,73.8,30.01,South,181,0.0,8.0,80,0.00,,,0.01,222.0,meteohub,2013-04-17 15:32:00,
2013-04-17 11:37:00,81.0,74.7,30.01,South,181,0.0,0.0,81,0.00,,,0.01,290.0,meteohub,2013-04-17 15:37:00,
2013-04-17 11:42:00,81.0,73.8,30.01,ESE,117,5.0,0.0,79,0.00,,,0.01,178.0,meteohub,2013-04-17 15:42:00,
2013-04-17 11:47:00,81.9,74.7,30.01,NE,56,2.0,14.0,79,0.00,,,0.01,1226.0,meteohub,2013-04-17 15:47:00,
2013-04-17 11:52:00,83.1,74.8,30.01,ESE,106,5.0,14.0,76,0.00,,,0.01,192.0,meteohub,2013-04-17 15:52:00,
2013-04-17 11:58:00,84.0,74.8,30.01,East,86,13.0,14.0,74,0.00,,,0.01,1170.0,meteohub,2013-04-17 15:58:00,
2013-04-17 12:03:00,84.4,73.9,30.01,East,97,3.0,16.0,71,0.00,,,0.01,341.0,meteohub,2013-04-17 16:03:00,
2013-04-17 12:08:00,84.9,74.1,30.01,ESE,104,0.0,17.0,70,0.00,,,0.01,1223.0,meteohub,2013-04-17 16:08:00,
2013-04-17 12:13:00,85.8,74.8,30.01,ENE,76,12.0,17.0,70,0.00,,,0.01,327.0,meteohub,2013-04-17 16:13:00,
2013-04-17 12:18:00,85.1,74.1,30.01,East,90,7.0,17.0,70,0.00,,,0.01,262.0,meteohub,2013-04-17 16:18:00,
2013-04-17 12:23:00,84.0,73.6,30.01,NE,42,6.0,16.0,71,0.00,,,0.01,227.0,meteohub,2013-04-17 16:23:00,
2013-04-17 12:28:00,84.7,75.2,30.00,ESE,110,6.0,16.0,73,0.00,,,0.01,1293.0,meteohub,2013-04-17 16:28:00,
2013-04-17 12:33:00,85.6,74.7,30.00,ENE,72,0.0,17.0,70,0.00,,,0.01,1284.0,meteohub,2013-04-17 16:33:00,
2013-04-17 12:38:00,85.8,73.9,30.00,ESE,114,8.0,17.0,68,0.00,,,0.01,1284.0,meteohub,2013-04-17 16:38:00,
2013-04-17 12:43:00,85.5,74.1,30.00,ENE,76,11.0,13.0,69,0.00,,,0.01,299.0,meteohub,2013-04-17 16:43:00,
2013-04-17 12:48:00,84.7,73.4,30.00,NE,56,0.0,14.0,69,0.00,,,0.01,280.0,meteohub,2013-04-17 16:48:00,
2013-04-17 12:53:00,84.6,73.2,30.00,ESE,106,1.0,19.0,69,0.00,,,0.01,282.0,meteohub,2013-04-17 16:53:00,
2013-04-17 12:58:00,84.7,73.0,30.00,East,86,12.0,19.0,68,0.00,,,0.01,1179.0,meteohub,2013-04-17 16:58:00,
2013-04-17 13:03:00,85.1,73.8,30.00,ENE,78,1.0,19.0,69,0.00,,,0.01,419.0,meteohub,2013-04-17 17:03:00,
2013-04-17 13:08:00,85.5,73.2,30.00,ESE,106,5.0,14.0,67,0.00,,,0.01,1209.0,meteohub,2013-04-17 17:08:00,
2013-04-17 13:13:00,86.2,73.0,29.99,East,82,10.0,14.0,65,0.00,,,0.01,1100.0,meteohub,2013-04-17 17:13:00,
2013-04-17 13:18:00,85.8,72.1,29.99,ESE,102,7.0,14.0,64,0.00,,,0.01,1128.0,meteohub,2013-04-17 17:18:00,
2013-04-17 13:23:00,86.4,71.8,29.99,East,93,6.0,18.0,62,0.00,,,0.01,1107.0,meteohub,2013-04-17 17:23:00,
2013-04-17 13:28:00,87.1,72.5,29.98,ENE,75,7.0,18.0,62,0.00,,,0.01,1084.0,meteohub,2013-04-17 17:28:00,
2013-04-17 13:33:00,86.7,72.1,29.98,East,97,11.0,18.0,62,0.00,,,0.01,1165.0,meteohub,2013-04-17 17:33:00,
2013-04-17 13:38:00,86.2,72.1,29.98,ENE,76,2.0,18.0,63,0.00,,,0.01,1165.0,meteohub,2013-04-17 17:38:00,
2013-04-17 13:43:00,86.7,72.1,29.97,ENE,61,6.0,18.0,62,0.00,,,0.01,1031.0,meteohub,2013-04-17 17:43:00,
2013-04-17 13:48:00,87.6,73.0,29.97,ESE,104,4.0,18.0,62,0.00,,,0.01,1086.0,meteohub,2013-04-17 17:48:00,
2013-04-17 13:54:00,86.2,72.5,29.97,East,93,7.0,17.0,64,0.00,,,0.01,257.0,meteohub,2013-04-17 17:54:00,
2013-04-17 13:59:00,85.8,72.1,29.97,SE,128,9.0,20.0,64,0.00,,,0.01,968.0,meteohub,2013-04-17 17:59:00,
2013-04-17 14:04:00,86.4,72.7,29.97,East,93,13.0,20.0,64,0.00,,,0.01,952.0,meteohub,2013-04-17 18:04:00,
2013-04-17 14:09:00,86.2,73.0,29.97,East,97,12.0,18.0,65,0.00,,,0.01,931.0,meteohub,2013-04-17 18:09:00,
2013-04-17 14:14:00,86.5,73.4,29.96,East,80,3.0,20.0,65,0.00,,,0.01,1021.0,meteohub,2013-04-17 18:14:00,
2013-04-17 14:19:00,86.7,73.6,29.96,East,97,8.0,20.0,65,0.00,,,0.01,338.0,meteohub,2013-04-17 18:19:00,
2013-04-17 14:24:00,86.4,73.6,29.96,ENE,78,12.0,20.0,66,0.00,,,0.01,968.0,meteohub,2013-04-17 18:24:00,
2013-04-17 14:29:00,86.2,73.0,29.96,East,93,18.0,18.0,65,0.00,,,0.01,952.0,meteohub,2013-04-17 18:29:00,
2013-04-17 14:34:00,85.6,71.1,29.96,East,99,6.0,20.0,62,0.00,,,0.01,864.0,meteohub,2013-04-17 18:34:00,
2013-04-17 14:39:00,85.6,71.6,29.96,ENE,72,13.0,21.0,63,0.00,,,0.01,845.0,meteohub,2013-04-17 18:39:00,
2013-04-17 14:44:00,85.5,72.3,29.96,East,100,12.0,25.0,65,0.00,,,0.01,853.0,meteohub,2013-04-17 18:44:00,
2013-04-17 14:49:00,85.6,74.3,29.96,NE,49,4.0,25.0,69,0.00,,,0.01,834.0,meteohub,2013-04-17 18:49:00,
2013-04-17 14:54:00,85.8,73.9,29.96,SE,140,3.0,25.0,68,0.00,,,0.01,816.0,meteohub,2013-04-17 18:54:00,
2013-04-17 14:59:00,85.3,72.7,29.96,ENE,62,13.0,21.0,66,0.00,,,0.01,797.0,meteohub,2013-04-17 18:59:00,
2013-04-17 15:04:00,84.9,72.3,29.96,East,85,10.0,19.0,66,0.00,,,0.01,809.0,meteohub,2013-04-17 19:04:00,
2013-04-17 15:09:00,84.7,72.5,29.96,East,96,16.0,25.0,67,0.00,,,0.01,792.0,meteohub,2013-04-17 19:09:00,
2013-04-17 15:14:00,84.7,73.4,29.95,East,85,4.0,25.0,69,0.00,,,0.01,772.0,meteohub,2013-04-17 19:14:00,
2013-04-17 15:19:00,84.6,73.2,29.95,ESE,121,8.0,25.0,69,0.00,,,0.01,714.0,meteohub,2013-04-17 19:19:00,
2013-04-17 15:24:00,84.7,73.0,29.95,ENE,59,8.0,22.0,68,0.00,,,0.01,695.0,meteohub,2013-04-17 19:24:00,
2013-04-17 15:29:00,84.9,71.8,29.95,NE,56,13.0,17.0,65,0.00,,,0.01,681.0,meteohub,2013-04-17 19:29:00,
2013-04-17 15:34:00,85.3,72.1,29.95,SE,137,10.0,20.0,65,0.00,,,0.01,660.0,meteohub,2013-04-17 19:34:00,
2013-04-17 15:39:00,85.6,73.0,29.95,East,89,6.0,20.0,66,0.00,,,0.01,663.0,meteohub,2013-04-17 19:39:00,
2013-04-17 15:44:00,86.2,73.0,29.95,East,85,7.0,20.0,65,0.00,,,0.01,730.0,meteohub,2013-04-17 19:44:00,
2013-04-17 15:49:00,86.2,73.4,29.95,SE,133,8.0,18.0,66,0.00,,,0.01,612.0,meteohub,2013-04-17 19:49:00,
2013-04-17 15:54:00,86.4,73.2,29.95,East,92,13.0,14.0,65,0.00,,,0.01,665.0,meteohub,2013-04-17 19:54:00,
2013-04-17 16:00:00,85.8,73.2,29.95,East,99,5.0,14.0,66,0.00,,,0.01,639.0,meteohub,2013-04-17 20:00:00,
2013-04-17 16:04:00,85.5,73.2,29.95,ESE,107,10.0,16.0,67,0.00,,,0.01,552.0,meteohub,2013-04-17 20:04:00,
2013-04-17 16:10:00,85.3,72.7,29.95,East,97,6.0,16.0,66,0.00,,,0.01,538.0,meteohub,2013-04-17 20:10:00,
2013-04-17 16:15:00,85.5,73.2,29.95,ESE,123,10.0,17.0,67,0.00,,,0.01,530.0,meteohub,2013-04-17 20:15:00,
2013-04-17 16:20:00,85.3,72.7,29.95,East,88,6.0,17.0,66,0.00,,,0.01,507.0,meteohub,2013-04-17 20:20:00,
2013-04-17 16:25:00,85.5,72.3,29.95,East,90,7.0,18.0,65,0.00,,,0.01,482.0,meteohub,2013-04-17 20:25:00,
2013-04-17 16:30:00,85.5,72.3,29.95,SE,130,8.0,18.0,65,0.00,,,0.01,468.0,meteohub,2013-04-17 20:30:00,
2013-04-17 16:35:00,85.5,73.2,29.95,East,100,11.0,18.0,67,0.00,,,0.01,468.0,meteohub,2013-04-17 20:35:00,
2013-04-17 16:40:00,85.3,73.0,29.95,SE,124,10.0,17.0,67,0.00,,,0.01,456.0,meteohub,2013-04-17 20:40:00,
2013-04-17 16:45:00,84.7,72.5,29.95,ESE,102,10.0,17.0,67,0.00,,,0.01,137.0,meteohub,2013-04-17 20:45:00,
2013-04-17 16:50:00,84.7,72.5,29.95,ESE,106,7.0,17.0,67,0.00,,,0.01,389.0,meteohub,2013-04-17 20:50:00,
2013-04-17 16:55:00,84.9,72.3,29.95,ENE,64,6.0,17.0,66,0.00,,,0.01,357.0,meteohub,2013-04-17 20:55:00,
2013-04-17 17:00:00,84.4,73.6,29.96,ESE,114,11.0,18.0,70,0.00,,,0.01,355.0,meteohub,2013-04-17 21:00:00,
2013-04-17 17:05:00,83.8,73.8,29.96,ENE,66,11.0,18.0,72,0.00,,,0.01,338.0,meteohub,2013-04-17 21:05:00,
2013-04-17 17:10:00,83.5,73.9,29.96,East,100,7.0,18.0,73,0.00,,,0.01,338.0,meteohub,2013-04-17 21:10:00,
2013-04-17 17:15:00,82.8,72.9,29.96,East,82,2.0,19.0,72,0.00,,,0.01,81.0,meteohub,2013-04-17 21:15:00,
2013-04-17 17:20:00,82.0,72.5,29.96,East,99,11.0,19.0,73,0.00,,,0.01,266.0,meteohub,2013-04-17 21:20:00,
2013-04-17 17:25:00,81.3,71.8,29.96,ENE,69,7.0,20.0,73,0.00,,,0.01,241.0,meteohub,2013-04-17 21:25:00,
2013-04-17 17:30:00,81.1,72.1,29.96,ENE,72,10.0,20.0,74,0.00,,,0.01,213.0,meteohub,2013-04-17 21:30:00,
2013-04-17 17:36:00,81.1,72.9,29.96,NE,49,11.0,20.0,76,0.00,,,0.01,187.0,meteohub,2013-04-17 21:36:00,
2013-04-17 17:41:00,81.1,73.2,29.96,East,90,6.0,18.0,77,0.00,,,0.01,178.0,meteohub,2013-04-17 21:41:00,
2013-04-17 17:46:00,81.1,73.2,29.97,East,86,7.0,18.0,77,0.00,,,0.01,146.0,meteohub,2013-04-17 21:46:00,
2013-04-17 17:51:00,81.1,73.2,29.97,East,88,10.0,18.0,77,0.00,,,0.01,127.0,meteohub,2013-04-17 21:51:00,
2013-04-17 17:57:00,81.0,73.0,29.97,East,100,12.0,18.0,77,0.00,,,0.01,107.0,meteohub,2013-04-17 21:57:00,
2013-04-17 18:02:00,80.8,72.9,29.98,East,93,11.0,17.0,77,0.00,,,0.01,83.0,meteohub,2013-04-17 22:02:00,
2013-04-17 18:07:00,80.8,72.9,29.98,ENE,78,10.0,16.0,77,0.00,,,0.01,39.0,meteohub,2013-04-17 22:07:00,
2013-04-17 18:12:00,80.2,72.3,29.98,East,88,6.0,16.0,77,0.00,,,0.01,30.0,meteohub,2013-04-17 22:12:00,
2013-04-17 18:17:00,80.2,72.3,29.98,East,90,0.0,16.0,77,0.00,,,0.01,26.0,meteohub,2013-04-17 22:17:00,
2013-04-17 18:22:00,80.2,72.3,29.98,ENE,69,1.0,14.0,77,0.00,,,0.01,26.0,meteohub,2013-04-17 22:22:00,
2013-04-17 18:27:00,80.2,72.7,29.98,ESE,106,0.0,13.0,78,0.00,,,0.01,30.0,meteohub,2013-04-17 22:27:00,
2013-04-17 18:32:00,80.2,72.7,29.98,ESE,102,11.0,12.0,78,0.00,,,0.01,30.0,meteohub,2013-04-17 22:32:00,
2013-04-17 18:37:00,80.1,73.0,29.98,East,97,6.0,12.0,79,0.00,,,0.01,21.0,meteohub,2013-04-17 22:37:00,
2013-04-17 18:42:00,79.9,73.2,29.98,ESE,107,5.0,13.0,80,0.00,,,0.01,0.0,meteohub,2013-04-17 22:42:00,
2013-04-17 18:47:00,79.5,73.2,29.98,ENE,71,3.0,13.0,81,0.00,,,0.01,0.0,meteohub,2013-04-17 22:47:00,
2013-04-17 18:52:00,79.3,73.4,29.98,ENE,76,0.0,11.0,82,0.00,,,0.01,0.0,meteohub,2013-04-17 22:52:00,
2013-04-17 18:57:00,79.0,73.4,29.99,ENE,68,3.0,11.0,83,0.00,,,0.01,0.0,meteohub,2013-04-17 22:57:00,
2013-04-17 19:02:00,78.8,73.6,29.99,East,79,1.0,11.0,84,0.00,,,0.01,0.0,meteohub,2013-04-17 23:02:00,
2013-04-17 19:07:00,78.4,73.2,29.99,ENE,71,0.0,11.0,84,0.00,,,0.01,0.0,meteohub,2013-04-17 23:07:00,
2013-04-17 19:12:00,78.4,73.2,29.99,ENE,76,3.0,11.0,84,0.00,,,0.01,0.0,meteohub,2013-04-17 23:12:00,
2013-04-17 19:17:00,78.3,73.0,29.99,SE,128,6.0,8.0,84,0.00,,,0.01,0.0,meteohub,2013-04-17 23:17:00,
2013-04-17 19:22:00,78.4,73.2,29.99,ENE,66,6.0,10.0,84,0.00,,,0.01,0.0,meteohub,2013-04-17 23:22:00,
2013-04-17 19:27:00,78.6,73.4,29.99,ESE,110,7.0,10.0,84,0.00,,,0.01,0.0,meteohub,2013-04-17 23:27:00,
2013-04-17 19:32:00,78.4,73.2,29.99,East,79,3.0,12.0,84,0.00,,,0.01,0.0,meteohub,2013-04-17 23:32:00,
2013-04-17 19:38:00,78.4,73.2,29.99,East,89,0.0,12.0,84,0.00,,,0.01,0.0,meteohub,2013-04-17 23:38:00,
2013-04-17 19:43:00,78.6,73.4,30.00,ENE,66,0.0,12.0,84,0.00,,,0.01,0.0,meteohub,2013-04-17 23:43:00,
2013-04-17 19:48:00,78.3,74.1,30.00,ENE,73,0.0,11.0,87,0.00,,,0.01,0.0,meteohub,2013-04-17 23:48:00,
2013-04-17 19:53:00,77.5,73.4,30.00,SE,124,0.0,11.0,87,0.00,,,0.01,0.0,meteohub,2013-04-17 23:53:00,
2013-04-17 19:58:00,77.5,73.4,30.00,East,79,0.0,10.0,87,0.00,,,0.01,0.0,meteohub,2013-04-17 23:58:00,
2013-04-17 20:03:00,77.4,72.9,30.00,ESE,116,0.0,10.0,86,0.00,,,0.01,0.0,meteohub,2013-04-18 00:03:00,
2013-04-17 20:08:00,77.4,72.5,30.00,East,88,0.0,10.0,85,0.00,,,0.01,0.0,meteohub,2013-04-18 00:08:00,
2013-04-17 20:13:00,77.5,72.3,30.01,ESE,103,0.0,8.0,84,0.00,,,0.01,0.0,meteohub,2013-04-18 00:13:00,
2013-04-17 20:18:00,77.7,72.5,30.01,ENE,72,6.0,11.0,84,0.00,,,0.01,0.0,meteohub,2013-04-18 00:18:00,
2013-04-17 20:23:00,77.7,72.1,30.01,ESE,106,0.0,11.0,83,0.00,,,0.01,0.0,meteohub,2013-04-18 00:23:00,
2013-04-17 20:28:00,77.7,71.8,30.01,East,93,0.0,10.0,82,0.00,,,0.01,0.0,meteohub,2013-04-18 00:28:00,
2013-04-17 20:33:00,77.9,72.0,30.01,ESE,104,0.0,11.0,82,0.00,,,0.01,0.0,meteohub,2013-04-18 00:33:00,
2013-04-17 20:38:00,77.9,72.0,30.01,East,99,0.0,12.0,82,0.00,,,0.01,0.0,meteohub,2013-04-18 00:38:00,
2013-04-17 20:43:00,77.9,72.0,30.02,East,86,0.0,12.0,82,0.00,,,0.01,0.0,meteohub,2013-04-18 00:43:00,
2013-04-17 20:49:00,77.9,72.0,30.02,East,86,0.0,10.0,82,0.00,,,0.01,0.0,meteohub,2013-04-18 00:49:00,
2013-04-17 20:54:00,77.9,72.0,30.02,ESE,103,0.0,7.0,82,0.00,,,0.01,0.0,meteohub,2013-04-18 00:54:00,
2013-04-17 20:59:00,77.9,72.3,30.02,East,100,0.0,6.0,83,0.00,,,0.01,0.0,meteohub,2013-04-18 00:59:00,
2013-04-17 21:04:00,77.9,72.3,30.02,ESE,119,0.0,6.0,83,0.00,,,0.01,0.0,meteohub,2013-04-18 01:04:00,
2013-04-17 21:09:00,77.7,72.1,30.02,ESE,110,0.0,6.0,83,0.00,,,0.01,0.0,meteohub,2013-04-18 01:09:00,
2013-04-17 21:14:00,77.7,72.1,30.03,ESE,119,0.0,5.0,83,0.00,,,0.01,0.0,meteohub,2013-04-18 01:14:00,
2013-04-17 21:19:00,77.7,72.1,30.03,ESE,119,0.0,5.0,83,0.00,,,0.01,0.0,meteohub,2013-04-18 01:19:00,
2013-04-17 21:24:00,77.7,72.1,30.03,ESE,107,3.0,3.0,83,0.00,,,0.01,0.0,meteohub,2013-04-18 01:24:00,
2013-04-17 21:29:00,77.7,72.5,30.03,ESE,112,0.0,6.0,84,0.00,,,0.01,0.0,meteohub,2013-04-18 01:29:00,
2013-04-17 21:34:00,77.7,72.5,30.03,SE,127,0.0,6.0,84,0.00,,,0.01,0.0,meteohub,2013-04-18 01:34:00,
2013-04-17 21:39:00,77.5,72.3,30.03,SE,124,0.0,6.0,84,0.00,,,0.01,0.0,meteohub,2013-04-18 01:39:00,
2013-04-17 21:44:00,77.5,72.3,30.04,East,95,0.0,5.0,84,0.00,,,0.01,0.0,meteohub,2013-04-18 01:44:00,
2013-04-17 21:49:00,77.5,72.3,30.04,East,97,0.0,5.0,84,0.00,,,0.01,0.0,meteohub,2013-04-18 01:49:00,
2013-04-17 21:54:00,77.5,72.3,30.04,ESE,103,0.0,6.0,84,0.00,,,0.01,0.0,meteohub,2013-04-18 01:54:00,
2013-04-17 21:59:00,77.5,72.3,30.04,ESE,104,0.0,6.0,84,0.00,,,0.01,0.0,meteohub,2013-04-18 01:59:00,
2013-04-17 22:04:00,77.7,72.5,30.04,East,100,3.0,3.0,84,0.00,,,0.01,0.0,meteohub,2013-04-18 02:04:00,
2013-04-17 22:09:00,77.9,72.7,30.04,ESE,116,3.0,6.0,84,0.00,,,0.01,0.0,meteohub,2013-04-18 02:09:00,
2013-04-17 22:14:00,77.5,73.0,30.04,SE,138,0.0,19.0,86,0.00,,,0.01,0.0,meteohub,2013-04-18 02:14:00,
2013-04-17 22:19:00,77.0,72.9,30.04,SSE,150,6.0,19.0,87,0.00,,,0.01,0.0,meteohub,2013-04-18 02:19:00,
2013-04-17 22:24:00,76.3,72.1,30.04,SE,140,0.0,19.0,87,0.00,,,0.01,0.0,meteohub,2013-04-18 02:24:00,
2013-04-17 22:29:00,76.3,72.5,30.04,ESE,114,0.0,11.0,88,0.00,,,0.01,0.0,meteohub,2013-04-18 02:29:00,
2013-04-17 22:34:00,76.3,72.5,30.04,ESE,121,2.0,11.0,88,0.00,,,0.01,0.0,meteohub,2013-04-18 02:34:00,
2013-04-17 22:39:00,76.1,72.0,30.04,SE,144,0.0,11.0,87,0.00,,,0.01,0.0,meteohub,2013-04-18 02:39:00,
2013-04-17 22:44:00,76.1,72.0,30.04,ESE,107,0.0,10.0,87,0.00,,,0.01,0.0,meteohub,2013-04-18 02:44:00,
2013-04-17 22:49:00,76.1,72.0,30.04,SE,131,0.0,10.0,87,0.00,,,0.01,0.0,meteohub,2013-04-18 02:49:00,
2013-04-17 22:54:00,76.1,72.0,30.04,ESE,117,0.0,10.0,87,0.00,,,0.01,0.0,meteohub,2013-04-18 02:54:00,
2013-04-17 22:59:00,76.1,72.0,30.05,SE,141,0.0,10.0,87,0.00,,,0.01,0.0,meteohub,2013-04-18 02:59:00,
2013-04-17 23:05:00,75.9,71.8,30.05,ESE,120,0.0,6.0,87,0.00,,,0.01,0.0,meteohub,2013-04-18 03:05:00,
2013-04-17 23:10:00,75.9,71.8,30.05,ESE,120,0.0,8.0,87,0.00,,,0.01,0.0,meteohub,2013-04-18 03:10:00,
2013-04-17 23:15:00,75.9,71.8,30.05,ESE,110,0.0,8.0,87,0.00,,,0.01,0.0,meteohub,2013-04-18 03:15:00,
2013-04-17 23:20:00,76.1,72.0,30.05,ESE,110,0.0,8.0,87,0.00,,,0.01,0.0,meteohub,2013-04-18 03:20:00,
2013-04-17 23:25:00,75.9,71.8,30.05,ESE,110,0.0,0.0,87,0.00,,,0.01,0.0,meteohub,2013-04-18 03:25:00,
2013-04-17 23:30:00,75.9,71.8,30.05,ESE,112,0.0,0.0,87,0.00,,,0.01,0.0,meteohub,2013-04-18 03:30:00,
2013-04-17 23:35:00,75.9,71.4,30.05,ESE,112,0.0,0.0,86,0.00,,,0.01,0.0,meteohub,2013-04-18 03:35:00,
2013-04-17 23:40:00,75.9,71.4,30.05,ESE,113,0.0,0.0,86,0.00,,,0.01,0.0,meteohub,2013-04-18 03:40:00,
2013-04-17 23:45:00,75.9,71.4,30.04,ESE,114,0.0,0.0,86,0.00,,,0.01,0.0,meteohub,2013-04-18 03:45:00,
2013-04-17 23:50:00,75.9,71.4,30.04,ESE,116,0.0,0.0,86,0.00,,,0.01,0.0,meteohub,2013-04-18 03:50:00,
2013-04-17 23:55:00,75.9,71.4,30.04,ESE,116,0.0,0.0,86,0.00,,,0.01,0.0,meteohub,2013-04-18 03:55:00,